createdAt,value
2022-08-26T00:00:16.645Z,77.1
2022-08-26T00:01:17.241Z,76.8
2022-08-26T00:02:20.595Z,76.9
2022-08-26T00:03:20.420Z,77.5
2022-08-26T00:04:21.081Z,78.0
2022-08-26T00:05:21.658Z,77.1
2022-08-26T00:06:23.247Z,76.7
2022-08-26T00:07:23.844Z,76.5
2022-08-26T00:08:24.444Z,76.8
2022-08-26T00:09:25.122Z,76.5
2022-08-26T00:10:25.844Z,76.5
2022-08-26T00:11:27.223Z,76.8
2022-08-26T00:12:35.955Z,76.5
2022-08-26T00:13:29.383Z,76.4
2022-08-26T00:14:30.921Z,76.4
2022-08-26T00:15:30.590Z,77.0
2022-08-26T00:16:31.612Z,76.4
2022-08-26T00:17:32.161Z,76.5
2022-08-26T00:18:33.500Z,76.4
2022-08-26T00:19:35.114Z,76.5
2022-08-26T00:20:35.706Z,76.6
2022-08-26T00:21:37.582Z,77.1
2022-08-26T00:22:38.049Z,76.9
2022-08-26T00:23:38.639Z,77.0
2022-08-26T00:24:39.237Z,76.9
2022-08-26T00:25:42.490Z,76.5
2022-08-26T00:26:41.677Z,78.0
2022-08-26T00:27:43.177Z,76.9
2022-08-26T00:28:44.146Z,76.7
2022-08-26T00:29:44.742Z,76.9
2022-08-26T00:30:45.493Z,76.9
2022-08-26T00:31:46.191Z,76.6
2022-08-26T00:32:46.747Z,76.7
2022-08-26T00:33:48.339Z,77.3
2022-08-26T00:34:49.928Z,76.9
2022-08-26T00:35:50.569Z,77.2
2022-08-26T00:36:52.231Z,76.7
2022-08-26T00:37:52.758Z,76.7
2022-08-26T00:38:53.365Z,76.3
2022-08-26T00:39:54.005Z,76.4
2022-08-26T00:40:54.955Z,76.0
2022-08-26T00:41:55.573Z,75.5
2022-08-26T00:42:56.169Z,75.5
2022-08-26T00:43:57.405Z,75.4
2022-08-26T00:44:57.980Z,75.8
2022-08-26T00:45:58.667Z,76.3
2022-08-26T00:46:59.327Z,76.6
2022-08-26T00:48:00.867Z,76.4
2022-08-26T00:49:02.458Z,77.1
2022-08-26T00:50:03.057Z,77.3
2022-08-26T00:51:04.098Z,77.3
2022-08-26T00:52:05.069Z,76.8
2022-08-26T00:53:06.783Z,77.9
2022-08-26T00:54:07.358Z,77.8
2022-08-26T00:55:08.952Z,77.6
2022-08-26T00:56:09.567Z,77.3
2022-08-26T00:57:15.933Z,77.7
2022-08-26T00:58:12.747Z,76.9
2022-08-26T00:59:13.512Z,77.0
2022-08-26T01:00:14.107Z,76.6
2022-08-26T01:01:14.740Z,76.7
2022-08-26T01:02:20.981Z,76.6
2022-08-26T01:03:16.891Z,76.8
2022-08-26T01:04:17.485Z,77.4
2022-08-26T01:05:18.482Z,76.9
2022-08-26T01:06:19.200Z,76.9
2022-08-26T01:07:19.807Z,76.6
2022-08-26T01:08:20.395Z,78.1
2022-08-26T01:09:21.232Z,77.9
2022-08-26T01:10:21.828Z,76.9
2022-08-26T01:11:22.427Z,77.4
2022-08-26T01:12:23.023Z,76.9
2022-08-26T01:13:23.983Z,76.9
2022-08-26T01:14:24.236Z,77.7
2022-08-26T01:15:24.828Z,77.7
2022-08-26T01:16:25.500Z,77.5
2022-08-26T01:17:26.035Z,78.1
2022-08-26T01:18:26.628Z,78.1
2022-08-26T01:19:27.228Z,77.7
2022-08-26T01:20:27.845Z,77.0
2022-08-26T01:21:28.442Z,77.8
2022-08-26T01:22:29.992Z,77.7
2022-08-26T01:23:31.242Z,77.9
2022-08-26T01:24:31.839Z,77.7
2022-08-26T01:25:32.436Z,77.9
2022-08-26T01:26:33.164Z,78.1
2022-08-26T01:27:33.762Z,76.9
2022-08-26T01:28:34.358Z,77.2
2022-08-26T01:29:35.357Z,76.7
2022-08-26T01:30:35.971Z,77.8
2022-08-26T01:31:36.784Z,77.9
2022-08-26T01:32:38.975Z,78.1
2022-08-26T01:33:42.188Z,77.9
2022-08-26T01:34:41.157Z,77.7
2022-08-26T01:35:41.750Z,77.9
2022-08-26T01:36:42.348Z,77.1
2022-08-26T01:37:42.944Z,77.6
2022-08-26T01:38:43.541Z,77.5
2022-08-26T01:39:44.138Z,77.9
2022-08-26T01:40:45.525Z,77.5
2022-08-26T01:41:46.121Z,77.8
2022-08-26T01:42:46.878Z,78.0
2022-08-26T01:43:47.462Z,78.3
2022-08-26T01:44:48.994Z,78.1
2022-08-26T01:45:49.641Z,78.4
2022-08-26T01:46:50.663Z,78.7
2022-08-26T01:47:57.122Z,78.8
2022-08-26T01:48:54.509Z,78.5
2022-08-26T01:49:53.986Z,78.9
2022-08-26T01:50:54.777Z,79.1
2022-08-26T01:51:55.371Z,78.9
2022-08-26T01:52:55.971Z,78.7
2022-08-26T01:53:56.567Z,78.8
2022-08-26T01:54:58.158Z,78.6
2022-08-26T01:55:58.771Z,78.6
2022-08-26T01:56:59.363Z,78.6
2022-08-26T01:57:59.960Z,78.8
2022-08-26T01:59:00.556Z,78.9
2022-08-26T02:00:01.158Z,78.6
2022-08-26T02:01:02.546Z,79.2
2022-08-26T02:02:03.144Z,78.5
2022-08-26T02:03:03.801Z,78.6
2022-08-26T02:04:05.431Z,78.8
2022-08-26T02:05:06.803Z,78.6
2022-08-26T02:06:09.412Z,78.6
2022-08-26T02:07:08.990Z,78.6
2022-08-26T02:08:09.588Z,79.3
2022-08-26T02:09:10.550Z,79.2
2022-08-26T02:10:11.151Z,79.7
2022-08-26T02:11:11.746Z,79.5
2022-08-26T02:12:12.345Z,79.1
2022-08-26T02:13:12.962Z,78.8
2022-08-26T02:14:14.449Z,79.0
2022-08-26T02:15:15.046Z,79.7
2022-08-26T02:16:16.673Z,79.4
2022-08-26T02:17:17.232Z,79.7
2022-08-26T02:18:18.824Z,79.5
2022-08-26T02:19:19.684Z,79.2
2022-08-26T02:20:20.284Z,78.6
2022-08-26T02:21:20.943Z,79.3
2022-08-26T02:22:21.559Z,79.7
2022-08-26T02:23:24.416Z,79.5
2022-08-26T02:24:23.819Z,79.3
2022-08-26T02:25:25.424Z,79.8
2022-08-26T02:26:26.938Z,79.7
2022-08-26T02:27:28.161Z,79.6
2022-08-26T02:28:29.184Z,79.4
2022-08-26T02:29:29.801Z,79.4
2022-08-26T02:30:30.412Z,79.6
2022-08-26T02:31:31.074Z,79.8
2022-08-26T02:32:32.562Z,80.0
2022-08-26T02:33:33.160Z,80.0
2022-08-26T02:34:33.758Z,79.9
2022-08-26T02:35:34.352Z,80.2
2022-08-26T02:36:35.216Z,80.4
2022-08-26T02:37:35.812Z,80.0
2022-08-26T02:38:36.431Z,79.8
2022-08-26T02:39:37.730Z,79.8
2022-08-26T02:40:38.282Z,79.8
2022-08-26T02:41:44.102Z,79.6
2022-08-26T02:42:40.468Z,79.8
2022-08-26T02:43:42.057Z,79.6
2022-08-26T02:44:43.163Z,79.4
2022-08-26T02:45:44.619Z,80.1
2022-08-26T02:46:46.825Z,79.8
2022-08-26T02:47:46.806Z,80.1
2022-08-26T02:48:47.405Z,80.0
2022-08-26T02:49:48.003Z,79.9
2022-08-26T02:50:48.968Z,80.0
2022-08-26T02:51:49.587Z,79.9
2022-08-26T02:52:50.187Z,80.3
2022-08-26T02:53:50.793Z,79.9
2022-08-26T02:54:51.670Z,80.5
2022-08-26T02:55:52.267Z,80.1
2022-08-26T02:56:52.864Z,80.0
2022-08-26T02:57:53.459Z,80.2
2022-08-26T02:58:54.056Z,80.1
2022-08-26T02:59:54.653Z,80.2
2022-08-26T03:00:55.284Z,80.0
2022-08-26T03:01:56.049Z,80.6
2022-08-26T03:02:56.822Z,80.5
2022-08-26T03:03:57.419Z,80.3
2022-08-26T03:05:01.946Z,80.4
2022-08-26T03:05:59.603Z,80.3
2022-08-26T03:07:00.205Z,80.5
2022-08-26T03:08:01.022Z,80.9
2022-08-26T03:09:02.555Z,80.6
2022-08-26T03:10:08.108Z,80.4
2022-08-26T03:11:05.474Z,80.5
2022-08-26T03:12:06.980Z,80.7
2022-08-26T03:13:08.296Z,80.5
2022-08-26T03:14:08.903Z,80.0
2022-08-26T03:15:16.402Z,80.5
2022-08-26T03:16:11.150Z,80.6
2022-08-26T03:17:11.696Z,80.6
2022-08-26T03:18:12.295Z,80.4
2022-08-26T03:19:12.894Z,80.5
2022-08-26T03:20:13.624Z,80.4
2022-08-26T03:21:15.084Z,80.2
2022-08-26T03:22:15.704Z,81.2
2022-08-26T03:23:16.302Z,80.8
2022-08-26T03:24:17.892Z,81.2
2022-08-26T03:25:18.489Z,80.9
2022-08-26T03:26:19.118Z,81.0
2022-08-26T03:27:19.711Z,81.0
2022-08-26T03:28:20.313Z,81.0
2022-08-26T03:29:20.908Z,80.9
2022-08-26T03:30:21.505Z,81.0
2022-08-26T03:31:24.483Z,80.8
2022-08-26T03:32:23.694Z,81.0
2022-08-26T03:33:25.284Z,81.2
2022-08-26T03:34:25.882Z,80.7
2022-08-26T03:35:26.481Z,80.6
2022-08-26T03:36:27.083Z,80.6
2022-08-26T03:37:27.697Z,80.6
2022-08-26T03:38:28.300Z,80.3
2022-08-26T03:39:31.552Z,81.0
2022-08-26T03:40:30.627Z,80.5
2022-08-26T03:41:31.219Z,80.2
2022-08-26T03:42:31.835Z,80.9
2022-08-26T03:43:32.443Z,81.2
2022-08-26T03:44:33.051Z,81.2
2022-08-26T03:45:33.648Z,81.2
2022-08-26T03:46:34.299Z,80.9
2022-08-26T03:47:34.846Z,80.9
2022-08-26T03:48:36.434Z,81.2
2022-08-26T03:49:37.032Z,81.7
2022-08-26T03:50:37.628Z,81.6
2022-08-26T03:51:38.668Z,81.4
2022-08-26T03:52:43.531Z,82.0
2022-08-26T03:53:41.115Z,82.0
2022-08-26T03:54:41.710Z,82.1
2022-08-26T03:55:43.370Z,82.0
2022-08-26T03:56:43.934Z,82.1
2022-08-26T03:57:44.546Z,82.2
2022-08-26T03:58:45.924Z,82.2
2022-08-26T03:59:46.505Z,82.0
2022-08-26T04:00:47.104Z,81.8
2022-08-26T04:01:47.753Z,81.7
2022-08-26T04:02:48.411Z,81.9
2022-08-26T04:03:48.977Z,82.3
2022-08-26T04:04:49.577Z,82.3
2022-08-26T04:05:50.176Z,82.3
2022-08-26T04:06:50.776Z,82.3
2022-08-26T04:07:51.375Z,82.2
2022-08-26T04:08:51.974Z,83.2
2022-08-26T04:09:52.573Z,82.6
2022-08-26T04:10:53.171Z,82.6
2022-08-26T04:11:54.443Z,82.8
2022-08-26T04:12:55.045Z,83.0
2022-08-26T04:13:55.646Z,82.9
2022-08-26T04:14:57.224Z,83.0
2022-08-26T04:15:58.317Z,83.0
2022-08-26T04:16:58.911Z,82.9
2022-08-26T04:17:59.508Z,83.7
2022-08-26T04:19:00.108Z,83.4
2022-08-26T04:20:00.723Z,83.5
2022-08-26T04:21:01.326Z,83.6
2022-08-26T04:22:02.466Z,83.7
2022-08-26T04:23:03.090Z,84.1
2022-08-26T04:24:04.678Z,83.7
2022-08-26T04:25:06.800Z,83.9
2022-08-26T04:26:06.874Z,84.0
2022-08-26T04:27:08.220Z,84.5
2022-08-26T04:28:08.756Z,84.4
2022-08-26T04:29:09.357Z,84.4
2022-08-26T04:30:09.960Z,84.7
2022-08-26T04:31:10.696Z,84.6
2022-08-26T04:32:11.513Z,84.4
2022-08-26T04:33:13.103Z,84.3
2022-08-26T04:34:14.126Z,84.4
2022-08-26T04:35:14.806Z,84.2
2022-08-26T04:36:15.403Z,84.3
2022-08-26T04:37:16.006Z,84.6
2022-08-26T04:38:16.608Z,84.3
2022-08-26T04:39:18.617Z,84.6
2022-08-26T04:40:18.944Z,84.8
2022-08-26T04:41:19.563Z,84.8
2022-08-26T04:42:26.038Z,84.8
2022-08-26T04:43:21.780Z,84.8
2022-08-26T04:44:22.380Z,85.0
2022-08-26T04:45:23.978Z,85.1
2022-08-26T04:46:24.863Z,85.4
2022-08-26T04:47:30.410Z,85.1
2022-08-26T04:48:27.015Z,85.0
2022-08-26T04:49:27.712Z,85.6
2022-08-26T04:50:28.236Z,85.1
2022-08-26T04:51:29.142Z,85.2
2022-08-26T04:52:29.744Z,85.2
2022-08-26T04:53:31.343Z,85.5
2022-08-26T04:54:31.945Z,85.5
2022-08-26T04:55:38.564Z,85.2
2022-08-26T04:56:34.625Z,85.3
2022-08-26T04:57:35.227Z,85.3
2022-08-26T04:58:35.831Z,85.3
2022-08-26T04:59:39.343Z,85.5
2022-08-26T05:00:38.045Z,85.6
2022-08-26T05:01:39.454Z,85.4
2022-08-26T05:02:40.245Z,85.3
2022-08-26T05:03:41.012Z,84.9
2022-08-26T05:04:42.191Z,84.7
2022-08-26T05:05:42.795Z,84.6
2022-08-26T05:06:43.400Z,84.6
2022-08-26T05:07:44.003Z,84.4
2022-08-26T05:08:45.051Z,84.2
2022-08-26T05:09:45.655Z,84.1
2022-08-26T05:10:46.257Z,84.3
2022-08-26T05:11:52.200Z,84.5
2022-08-26T05:12:48.458Z,84.5
2022-08-26T05:13:49.533Z,84.6
2022-08-26T05:14:50.498Z,84.6
2022-08-26T05:15:52.122Z,84.4
2022-08-26T05:16:52.875Z,84.2
2022-08-26T05:17:53.474Z,84.2
2022-08-26T05:18:54.076Z,84.6
2022-08-26T05:19:54.679Z,84.3
2022-08-26T05:20:56.025Z,84.3
2022-08-26T05:21:56.628Z,84.1
2022-08-26T05:22:57.230Z,84.6
2022-08-26T05:23:57.834Z,84.6
2022-08-26T05:24:58.994Z,84.6
2022-08-26T05:26:00.442Z,84.3
2022-08-26T05:27:01.134Z,84.3
2022-08-26T05:28:01.737Z,84.3
2022-08-26T05:29:02.343Z,84.1
2022-08-26T05:30:02.944Z,83.8
2022-08-26T05:31:04.621Z,84.0
2022-08-26T05:32:05.457Z,83.7
2022-08-26T05:33:06.090Z,83.6
2022-08-26T05:34:07.016Z,82.9
2022-08-26T05:35:08.859Z,82.2
2022-08-26T05:36:08.880Z,81.8
2022-08-26T05:37:09.780Z,79.8
2022-08-26T05:38:12.603Z,78.0
2022-08-26T05:39:11.983Z,75.0
2022-08-26T05:40:12.609Z,73.7
2022-08-26T05:41:13.184Z,73.0
2022-08-26T05:42:14.782Z,72.8
2022-08-26T05:43:15.383Z,71.5
2022-08-26T05:44:15.985Z,72.1
2022-08-26T05:45:16.919Z,70.0
2022-08-26T05:46:17.875Z,69.6
2022-08-26T05:47:18.438Z,68.3
2022-08-26T05:48:22.576Z,69.6
2022-08-26T05:49:22.466Z,67.6
2022-08-26T05:50:23.225Z,66.7
2022-08-26T05:51:26.095Z,65.5
2022-08-26T05:52:25.979Z,65.5
2022-08-26T05:53:26.687Z,65.2
2022-08-26T05:54:27.291Z,63.3
2022-08-26T05:55:27.894Z,64.0
2022-08-26T05:56:28.747Z,63.6
2022-08-26T05:57:29.351Z,65.0
2022-08-26T05:58:30.206Z,65.4
2022-08-26T05:59:30.806Z,63.5
2022-08-26T06:00:32.404Z,63.5
2022-08-26T06:01:35.835Z,63.5
2022-08-26T06:02:34.655Z,63.5
2022-08-26T06:03:35.224Z,64.4
2022-08-26T06:04:35.840Z,66.8
2022-08-26T06:05:38.408Z,68.1
2022-08-26T06:06:38.593Z,67.7
2022-08-26T06:07:39.196Z,68.4
2022-08-26T06:08:40.634Z,69.2
2022-08-26T06:09:41.236Z,70.2
2022-08-26T06:10:41.841Z,70.3
2022-08-26T06:11:43.435Z,71.7
2022-08-26T06:12:44.288Z,71.5
2022-08-26T06:13:44.875Z,71.8
2022-08-26T06:14:45.479Z,71.5
2022-08-26T06:15:47.096Z,69.8
2022-08-26T06:16:47.676Z,69.8
2022-08-26T06:17:48.279Z,69.6
2022-08-26T06:18:49.324Z,69.7
2022-08-26T06:19:49.927Z,69.9
2022-08-26T06:20:57.043Z,70.5
2022-08-26T06:21:54.733Z,71.8
2022-08-26T06:22:53.872Z,71.1
2022-08-26T06:23:54.927Z,69.8
2022-08-26T06:24:56.524Z,68.6
2022-08-26T06:25:57.125Z,65.5
2022-08-26T06:26:57.765Z,64.7
2022-08-26T06:27:58.366Z,62.6
2022-08-26T06:28:59.320Z,62.1
2022-08-26T06:29:59.942Z,62.5
2022-08-26T06:31:00.576Z,61.8
2022-08-26T06:32:01.944Z,63.0
2022-08-26T06:33:02.547Z,63.9
2022-08-26T06:34:08.529Z,63.7
2022-08-26T06:35:05.741Z,63.0
2022-08-26T06:36:07.336Z,61.9
2022-08-26T06:37:08.410Z,60.4
2022-08-26T06:38:09.010Z,60.6
2022-08-26T06:39:09.618Z,60.4
2022-08-26T06:40:10.281Z,62.2
2022-08-26T06:41:11.816Z,62.3
2022-08-26T06:42:12.419Z,63.1
2022-08-26T06:43:13.881Z,62.4
2022-08-26T06:44:14.483Z,62.3
2022-08-26T06:45:15.090Z,63.0
2022-08-26T06:46:15.711Z,63.6
2022-08-26T06:47:16.294Z,63.9
2022-08-26T06:48:16.895Z,65.1
2022-08-26T06:49:17.664Z,64.0
2022-08-26T06:50:18.273Z,63.1
2022-08-26T06:51:18.845Z,62.2
2022-08-26T06:52:23.055Z,61.5
2022-08-26T06:53:21.045Z,60.8
2022-08-26T06:54:21.648Z,61.1
2022-08-26T06:55:22.251Z,62.5
2022-08-26T06:56:23.846Z,64.8
2022-08-26T06:57:24.466Z,65.8
2022-08-26T06:58:25.069Z,65.2
2022-08-26T06:59:25.683Z,64.5
2022-08-26T07:00:26.275Z,65.9
2022-08-26T07:01:26.993Z,65.9
2022-08-26T07:02:28.686Z,65.5
2022-08-26T07:03:29.201Z,65.5
2022-08-26T07:04:29.802Z,66.1
2022-08-26T07:05:30.409Z,65.1
2022-08-26T07:06:31.013Z,65.0
2022-08-26T07:07:31.630Z,65.7
2022-08-26T07:08:32.232Z,66.1
2022-08-26T07:09:33.831Z,66.1
2022-08-26T07:10:34.431Z,65.5
2022-08-26T07:11:35.052Z,65.0
2022-08-26T07:12:35.638Z,65.6
2022-08-26T07:13:36.578Z,64.4
2022-08-26T07:14:37.191Z,63.0
2022-08-26T07:15:37.846Z,61.2
2022-08-26T07:16:39.382Z,60.2
2022-08-26T07:17:40.981Z,61.7
2022-08-26T07:18:41.805Z,61.8
2022-08-26T07:19:42.421Z,63.1
2022-08-26T07:20:43.148Z,62.4
2022-08-26T07:21:43.754Z,60.8
2022-08-26T07:22:44.359Z,60.3
2022-08-26T07:23:44.966Z,59.5
2022-08-26T07:24:45.567Z,58.7
2022-08-26T07:25:46.364Z,57.2
2022-08-26T07:26:46.971Z,57.7
2022-08-26T07:27:54.294Z,58.9
2022-08-26T07:28:50.133Z,60.9
2022-08-26T07:29:50.752Z,61.0
2022-08-26T07:30:51.506Z,61.3
2022-08-26T07:31:53.066Z,60.8
2022-08-26T07:32:54.665Z,60.8
2022-08-26T07:33:55.270Z,60.7
2022-08-26T07:34:55.875Z,60.9
2022-08-26T07:35:56.480Z,62.4
2022-08-26T07:36:57.312Z,62.3
2022-08-26T07:37:58.911Z,63.2
2022-08-26T07:38:59.519Z,62.6
2022-08-26T07:40:00.218Z,64.5
2022-08-26T07:41:01.678Z,65.3
2022-08-26T07:42:07.329Z,65.5
2022-08-26T07:43:02.899Z,66.2
2022-08-26T07:44:03.505Z,67.3
2022-08-26T07:45:04.129Z,69.0
2022-08-26T07:46:04.750Z,68.4
2022-08-26T07:47:19.391Z,69.4
2022-08-26T07:48:06.962Z,68.7
2022-08-26T07:49:07.619Z,67.9
2022-08-26T07:50:08.191Z,67.9
2022-08-26T07:51:08.793Z,67.7
2022-08-26T07:52:09.398Z,67.7
2022-08-26T07:53:11.052Z,67.7
2022-08-26T07:54:11.619Z,67.1
2022-08-26T07:55:13.213Z,67.5
2022-08-26T07:56:13.820Z,67.7
2022-08-26T07:57:14.444Z,66.5
2022-08-26T07:58:15.049Z,65.6
2022-08-26T07:59:16.208Z,65.8
2022-08-26T08:00:16.816Z,65.0
2022-08-26T08:01:17.541Z,65.5
2022-08-26T08:02:18.140Z,63.7
2022-08-26T08:03:18.756Z,63.4
2022-08-26T08:04:25.560Z,63.1
2022-08-26T08:05:20.956Z,63.0
2022-08-26T08:06:22.269Z,62.8
2022-08-26T08:07:25.790Z,61.8
2022-08-26T08:08:27.895Z,61.3
2022-08-26T08:09:26.079Z,60.5
2022-08-26T08:10:27.614Z,60.2
2022-08-26T08:11:29.210Z,60.1
2022-08-26T08:12:30.807Z,59.1
2022-08-26T08:13:31.412Z,58.5
2022-08-26T08:14:32.400Z,58.7
2022-08-26T08:15:33.003Z,58.4
2022-08-26T08:16:36.378Z,58.4
2022-08-26T08:17:36.200Z,58.5
2022-08-26T08:18:36.807Z,58.0
2022-08-26T08:19:39.215Z,57.2
2022-08-26T08:20:38.035Z,58.7
2022-08-26T08:21:38.661Z,59.5
2022-08-26T08:22:39.325Z,60.8
2022-08-26T08:23:40.922Z,62.4
2022-08-26T08:24:41.546Z,62.3
2022-08-26T08:25:42.219Z,61.7
2022-08-26T08:26:42.957Z,60.8
2022-08-26T08:27:43.562Z,60.2
2022-08-26T08:28:44.164Z,59.3
2022-08-26T08:29:44.843Z,61.5
2022-08-26T08:30:45.488Z,61.9
2022-08-26T08:31:56.535Z,62.2
2022-08-26T08:32:47.654Z,62.2
2022-08-26T08:33:48.616Z,62.3
2022-08-26T08:34:49.248Z,61.4
2022-08-26T08:35:49.861Z,60.0
2022-08-26T08:36:53.260Z,58.3
2022-08-26T08:37:52.278Z,58.5
2022-08-26T08:38:52.882Z,57.9
2022-08-26T08:39:53.525Z,56.7
2022-08-26T08:40:54.088Z,56.1
2022-08-26T08:41:54.692Z,56.0
2022-08-26T08:42:55.321Z,56.8
2022-08-26T08:43:55.925Z,56.9
2022-08-26T08:44:56.535Z,57.1
2022-08-26T08:45:57.166Z,56.8
2022-08-26T08:46:57.841Z,57.9
2022-08-26T08:47:58.390Z,57.1
2022-08-26T08:48:58.994Z,57.0
2022-08-26T08:49:59.684Z,56.4
2022-08-26T08:51:00.287Z,56.4
2022-08-26T08:52:00.892Z,56.8
2022-08-26T08:53:01.518Z,56.8
2022-08-26T08:54:02.124Z,57.0
2022-08-26T08:55:02.769Z,56.8
2022-08-26T08:56:03.335Z,57.2
2022-08-26T08:57:04.932Z,57.2
2022-08-26T08:58:05.960Z,58.0
2022-08-26T08:59:07.477Z,57.2
2022-08-26T09:00:08.082Z,57.1
2022-08-26T09:01:09.759Z,56.9
2022-08-26T09:02:10.308Z,57.0
2022-08-26T09:03:10.932Z,57.2
2022-08-26T09:04:12.529Z,58.2
2022-08-26T09:05:15.003Z,58.4
2022-08-26T09:06:15.723Z,59.8
2022-08-26T09:07:16.944Z,60.3
2022-08-26T09:08:19.732Z,60.4
2022-08-26T09:09:19.936Z,59.7
2022-08-26T09:10:20.541Z,59.7
2022-08-26T09:11:21.167Z,58.6
2022-08-26T09:12:29.362Z,59.4
2022-08-26T09:13:26.287Z,59.4
2022-08-26T09:14:24.969Z,58.2
2022-08-26T09:15:30.175Z,58.4
2022-08-26T09:16:27.219Z,57.1
2022-08-26T09:17:27.787Z,57.2
2022-08-26T09:18:28.637Z,57.7
2022-08-26T09:19:29.242Z,57.2
2022-08-26T09:20:29.866Z,57.1
2022-08-26T09:21:30.473Z,57.2
2022-08-26T09:22:31.074Z,57.9
2022-08-26T09:23:31.677Z,57.1
2022-08-26T09:24:32.341Z,56.8
2022-08-26T09:25:32.940Z,55.6
2022-08-26T09:26:34.452Z,55.5
2022-08-26T09:27:35.155Z,54.1
2022-08-26T09:28:36.754Z,53.3
2022-08-26T09:29:37.472Z,55.1
2022-08-26T09:30:38.149Z,54.4
2022-08-26T09:31:38.701Z,54.6
2022-08-26T09:32:39.307Z,54.6
2022-08-26T09:33:39.910Z,54.1
2022-08-26T09:34:40.525Z,53.6
2022-08-26T09:35:42.067Z,54.5
2022-08-26T09:36:42.690Z,56.4
2022-08-26T09:37:43.343Z,55.9
2022-08-26T09:38:43.909Z,56.1
2022-08-26T09:39:44.513Z,55.9
2022-08-26T09:40:45.118Z,55.0
2022-08-26T09:41:45.742Z,54.3
2022-08-26T09:42:46.351Z,54.0
2022-08-26T09:43:46.969Z,54.4
2022-08-26T09:44:47.573Z,54.3
2022-08-26T09:45:50.217Z,52.9
2022-08-26T09:46:50.289Z,51.8
2022-08-26T09:47:50.891Z,52.9
2022-08-26T09:48:53.036Z,52.0
2022-08-26T09:49:53.095Z,52.2
2022-08-26T09:50:54.219Z,52.6
2022-08-26T09:51:54.823Z,54.4
2022-08-26T09:52:55.430Z,55.4
2022-08-26T09:53:56.034Z,55.6
2022-08-26T09:54:56.642Z,56.0
2022-08-26T09:55:58.238Z,54.8
2022-08-26T09:56:58.843Z,54.4
2022-08-26T09:58:06.780Z,54.6
2022-08-26T09:59:00.740Z,55.1
2022-08-26T10:00:01.347Z,54.4
2022-08-26T10:01:02.976Z,54.2
2022-08-26T10:02:03.617Z,53.9
2022-08-26T10:03:05.214Z,53.0
2022-08-26T10:04:05.861Z,53.7
2022-08-26T10:05:09.526Z,52.5
2022-08-26T10:06:08.039Z,53.1
2022-08-26T10:07:09.642Z,53.3
2022-08-26T10:08:10.245Z,53.8
2022-08-26T10:09:11.087Z,53.8
2022-08-26T10:10:11.646Z,53.7
2022-08-26T10:11:12.235Z,54.3
2022-08-26T10:12:12.841Z,54.6
2022-08-26T10:13:13.447Z,53.9
2022-08-26T10:14:14.073Z,54.3
2022-08-26T10:15:15.654Z,54.3
2022-08-26T10:16:17.296Z,54.8
2022-08-26T10:17:17.870Z,55.9
2022-08-26T10:18:18.475Z,56.8
2022-08-26T10:19:19.247Z,56.6
2022-08-26T10:20:23.316Z,56.7
2022-08-26T10:21:21.450Z,56.8
2022-08-26T10:22:22.225Z,56.8
2022-08-26T10:23:24.261Z,57.3
2022-08-26T10:24:24.567Z,57.4
2022-08-26T10:25:25.172Z,56.9
2022-08-26T10:26:25.777Z,56.5
2022-08-26T10:27:26.607Z,56.7
2022-08-26T10:28:27.218Z,56.3
2022-08-26T10:29:27.819Z,56.1
2022-08-26T10:30:28.439Z,54.8
2022-08-26T10:31:29.067Z,54.2
2022-08-26T10:32:29.746Z,54.3
2022-08-26T10:33:30.323Z,54.4
2022-08-26T10:34:30.925Z,54.1
2022-08-26T10:35:31.604Z,54.2
2022-08-26T10:36:36.451Z,53.4
2022-08-26T10:37:33.807Z,53.2
2022-08-26T10:38:34.905Z,54.7
2022-08-26T10:39:35.509Z,54.6
2022-08-26T10:40:36.423Z,56.7
2022-08-26T10:41:37.027Z,56.5
2022-08-26T10:42:38.149Z,55.9
2022-08-26T10:43:40.898Z,55.9
2022-08-26T10:44:40.354Z,56.3
2022-08-26T10:45:41.015Z,54.6
2022-08-26T10:46:42.019Z,55.4
2022-08-26T10:47:43.618Z,56.2
2022-08-26T10:48:44.243Z,56.7
2022-08-26T10:49:44.848Z,57.3
2022-08-26T10:50:47.515Z,56.5
2022-08-26T10:51:47.814Z,57.0
2022-08-26T10:52:48.437Z,58.0
2022-08-26T10:53:51.331Z,57.5
2022-08-26T10:54:51.053Z,56.8
2022-08-26T10:55:51.685Z,55.6
2022-08-26T10:56:52.296Z,55.0
2022-08-26T10:57:53.309Z,54.5
2022-08-26T10:58:54.538Z,54.3
2022-08-26T10:59:55.165Z,55.2
2022-08-26T11:00:55.904Z,56.2
2022-08-26T11:01:56.483Z,54.2
2022-08-26T11:02:57.089Z,54.3
2022-08-26T11:03:58.072Z,54.0
2022-08-26T11:04:58.759Z,54.3
2022-08-26T11:05:59.358Z,56.1
2022-08-26T11:06:59.965Z,54.9
2022-08-26T11:08:00.573Z,54.3
2022-08-26T11:09:01.180Z,54.1
2022-08-26T11:10:01.782Z,54.3
2022-08-26T11:11:02.387Z,54.4
2022-08-26T11:12:10.023Z,54.3
2022-08-26T11:13:04.591Z,53.4
2022-08-26T11:14:05.460Z,53.8
2022-08-26T11:15:06.063Z,54.2
2022-08-26T11:16:06.707Z,53.0
2022-08-26T11:17:07.281Z,52.5
2022-08-26T11:18:08.073Z,53.5
2022-08-26T11:19:08.834Z,52.6
2022-08-26T11:20:13.716Z,52.2
2022-08-26T11:21:11.093Z,52.0
2022-08-26T11:22:11.701Z,52.8
2022-08-26T11:23:12.307Z,53.8
2022-08-26T11:24:12.912Z,53.9
2022-08-26T11:25:13.517Z,53.5
2022-08-26T11:26:16.421Z,52.7
2022-08-26T11:27:15.724Z,52.6
2022-08-26T11:28:16.345Z,53.5
2022-08-26T11:29:17.942Z,53.9
2022-08-26T11:30:18.855Z,54.4
2022-08-26T11:31:19.679Z,54.7
2022-08-26T11:32:21.264Z,55.5
2022-08-26T11:33:21.888Z,55.3
2022-08-26T11:34:22.493Z,54.8
2022-08-26T11:35:23.104Z,54.3
2022-08-26T11:36:23.727Z,54.1
2022-08-26T11:37:25.327Z,54.4
2022-08-26T11:38:26.288Z,54.1
2022-08-26T11:39:26.892Z,54.6
2022-08-26T11:40:27.541Z,54.4
2022-08-26T11:41:28.152Z,54.5
2022-08-26T11:42:29.587Z,54.4
2022-08-26T11:43:30.444Z,55.1
2022-08-26T11:44:31.012Z,54.9
2022-08-26T11:45:32.154Z,54.4
2022-08-26T11:46:32.731Z,55.1
2022-08-26T11:47:33.382Z,55.3
2022-08-26T11:48:33.963Z,54.8
2022-08-26T11:49:34.567Z,56.2
2022-08-26T11:50:35.176Z,54.7
2022-08-26T11:51:39.708Z,55.2
2022-08-26T11:52:36.402Z,54.3
2022-08-26T11:53:37.315Z,53.9
2022-08-26T11:54:37.925Z,53.9
2022-08-26T11:55:38.527Z,53.9
2022-08-26T11:56:39.135Z,54.5
2022-08-26T11:57:39.739Z,54.7
2022-08-26T11:58:40.346Z,55.7
2022-08-26T11:59:40.974Z,55.4
2022-08-26T12:00:45.616Z,54.4
2022-08-26T12:01:43.407Z,54.4
2022-08-26T12:02:44.007Z,53.8
2022-08-26T12:03:44.759Z,53.8
2022-08-26T12:04:45.389Z,52.7
2022-08-26T12:05:45.962Z,52.6
2022-08-26T12:06:46.594Z,53.1
2022-08-26T12:07:47.197Z,51.7
2022-08-26T12:08:47.805Z,51.8
2022-08-26T12:09:48.922Z,52.4
2022-08-26T12:10:49.802Z,53.1
2022-08-26T12:11:50.409Z,53.2
2022-08-26T12:12:51.038Z,51.9
2022-08-26T12:13:51.643Z,53.0
2022-08-26T12:14:52.251Z,54.4
2022-08-26T12:15:52.856Z,54.4
2022-08-26T12:16:54.521Z,53.9
2022-08-26T12:17:55.072Z,53.1
2022-08-26T12:18:55.677Z,53.5
2022-08-26T12:19:56.283Z,53.8
2022-08-26T12:20:57.068Z,54.3
2022-08-26T12:21:57.674Z,54.3
2022-08-26T12:22:58.300Z,54.3
2022-08-26T12:23:58.915Z,54.3
2022-08-26T12:24:59.516Z,54.4
2022-08-26T12:26:00.121Z,54.4
2022-08-26T12:27:00.730Z,54.0
2022-08-26T12:28:01.334Z,54.4
2022-08-26T12:29:01.943Z,54.5
2022-08-26T12:30:03.544Z,54.1
2022-08-26T12:31:05.144Z,54.3
2022-08-26T12:32:05.748Z,54.2
2022-08-26T12:33:22.470Z,54.5
2022-08-26T12:34:17.567Z,54.2
2022-08-26T12:35:10.553Z,54.3
2022-08-26T12:36:11.779Z,53.7
2022-08-26T12:37:12.545Z,54.6
2022-08-26T12:38:13.148Z,56.2
2022-08-26T12:39:14.028Z,55.1
2022-08-26T12:40:14.699Z,54.1
2022-08-26T12:41:15.264Z,54.2
2022-08-26T12:42:15.875Z,53.9
2022-08-26T12:43:16.496Z,52.3
2022-08-26T12:44:17.100Z,52.5
2022-08-26T12:45:17.707Z,51.8
2022-08-26T12:46:18.319Z,52.2
2022-08-26T12:47:22.764Z,52.5
2022-08-26T12:48:20.525Z,52.7
2022-08-26T12:49:21.146Z,52.5
2022-08-26T12:50:21.754Z,53.5
2022-08-26T12:51:22.361Z,52.2
2022-08-26T12:52:22.969Z,52.8
2022-08-26T12:53:23.578Z,51.8
2022-08-26T12:54:24.187Z,53.0
2022-08-26T12:55:24.793Z,53.7
2022-08-26T12:56:25.401Z,52.9
2022-08-26T12:57:26.008Z,52.6
2022-08-26T12:58:26.615Z,52.5
2022-08-26T12:59:27.224Z,53.2
2022-08-26T13:00:28.472Z,53.7
2022-08-26T13:01:29.275Z,54.3
2022-08-26T13:02:29.901Z,53.8
2022-08-26T13:03:30.508Z,53.0
2022-08-26T13:04:31.119Z,52.8
2022-08-26T13:05:31.726Z,53.9
2022-08-26T13:06:32.352Z,53.8
2022-08-26T13:07:32.960Z,53.2
2022-08-26T13:08:33.569Z,53.1
2022-08-26T13:09:34.176Z,52.3
2022-08-26T13:10:34.786Z,52.6
2022-08-26T13:11:35.414Z,53.1
2022-08-26T13:12:36.039Z,53.9
2022-08-26T13:13:36.648Z,53.7
2022-08-26T13:14:38.248Z,53.6
2022-08-26T13:15:38.854Z,53.0
2022-08-26T13:16:39.593Z,52.5
2022-08-26T13:17:40.174Z,54.0
2022-08-26T13:18:40.783Z,53.1
2022-08-26T13:19:41.388Z,53.5
2022-08-26T13:20:41.996Z,52.7
2022-08-26T13:21:42.603Z,52.4
2022-08-26T13:22:43.213Z,51.7
2022-08-26T13:23:43.818Z,52.6
2022-08-26T13:24:44.428Z,54.7
2022-08-26T13:25:45.034Z,55.9
2022-08-26T13:26:45.663Z,57.3
2022-08-26T13:27:46.268Z,56.1
2022-08-26T13:28:53.263Z,54.6
2022-08-26T13:29:48.480Z,54.6